Time;durP1;ratioP1;P1;durP2;ratioP2;P2;SDS_P1;SDS_P2;PMS_P1;PMS_P2;Temp;Humidity;BMP_temperature;BMP_pressure;BME280_temperature;BME280_humidity;BME280_pressure;Samples;Min_cycle;Max_cycle;Signal;HPM_P1;HPM_P2
2022/08/08 00:00:05;;;;;;;1.48;0.63;;;25.30;34.50;;;;;;5050815;28;20029;-39
2022/08/08 00:03:00;;;;;;;0.55;0.52;;;25.30;34.70;;;;;;5049956;28;20378;-40
2022/08/08 00:05:38;;;;;;;1.38;0.70;;;25.30;34.60;;;;;;5049312;28;20083;-42
2022/08/08 00:08:22;;;;;;;1.23;0.70;;;25.30;34.50;;;;;;5053420;28;20036;-40
2022/08/08 00:11:13;;;;;;;1.77;0.60;;;25.30;34.50;;;;;;5051731;28;20028;-41
2022/08/08 00:13:51;;;;;;;5.07;0.82;;;25.30;34.70;;;;;;5051626;28;20104;-40
2022/08/08 00:16:28;;;;;;;3.13;1.08;;;25.30;34.90;;;;;;5061697;28;20206;-40
2022/08/08 00:19:15;;;;;;;1.15;0.50;;;25.30;35.10;;;;;;5052310;28;20104;-40
2022/08/08 00:21:47;;;;;;;2.35;0.80;;;25.30;34.90;;;;;;5053275;28;20286;-39
2022/08/08 00:24:27;;;;;;;1.58;0.75;;;25.20;34.90;;;;;;5060623;28;20021;-39
2022/08/08 00:26:59;;;;;;;1.53;0.80;;;25.20;35.00;;;;;;5058957;28;20029;-44
2022/08/08 00:29:32;;;;;;;1.80;0.73;;;25.20;35.10;;;;;;5062607;28;20147;-48
2022/08/08 00:32:05;;;;;;;1.00;0.70;;;25.20;35.20;;;;;;5061595;28;20024;-39
2022/08/08 00:37:39;;;;;;;1.58;0.90;;;25.20;35.50;;;;;;5060091;28;20044;-40
2022/08/08 00:40:26;;;;;;;1.45;0.90;;;25.20;36.30;;;;;;5062653;28;20104;-39
2022/08/08 00:43:16;;;;;;;1.35;0.77;;;25.20;36.30;;;;;;5048245;28;20540;-40
2022/08/08 00:45:54;;;;;;;2.33;0.88;;;25.10;35.70;;;;;;5067713;28;20020;-39
2022/08/08 00:48:44;;;;;;;1.63;0.70;;;25.10;35.80;;;;;;5063592;28;20025;-40
2022/08/08 00:51:18;;;;;;;1.83;0.82;;;25.10;35.80;;;;;;5054194;28;20029;-40
2022/08/08 00:54:13;;;;;;;1.85;0.80;;;25.10;35.80;;;;;;5061818;28;20024;-40
2022/08/08 00:57:11;;;;;;;2.22;0.82;;;25.10;35.90;;;;;;5035230;28;20124;-40
2022/08/08 01:00:06;;;;;;;1.48;1.10;;;25.00;35.80;;;;;;5057018;28;20032;-40
2022/08/08 01:02:56;;;;;;;2.33;0.82;;;25.00;35.90;;;;;;5054055;28;20111;-40
2022/08/08 01:05:46;;;;;;;1.20;0.95;;;25.00;36.10;;;;;;5067240;28;20112;-46
2022/08/08 01:08:35;;;;;;;1.13;0.90;;;25.00;36.10;;;;;;5054241;28;20029;-40
2022/08/08 01:11:25;;;;;;;1.75;0.90;;;25.00;36.10;;;;;;5056913;28;20494;-40
2022/08/08 01:14:08;;;;;;;0.88;0.70;;;25.00;36.20;;;;;;5053256;28;20021;-47
2022/08/08 01:17:03;;;;;;;1.80;0.98;;;25.00;36.30;;;;;;5060112;28;20025;-44
2022/08/08 01:19:40;;;;;;;0.90;0.75;;;24.90;36.30;;;;;;5058596;28;20029;-40
2022/08/08 01:22:46;;;;;;;1.55;0.93;;;25.00;36.40;;;;;;5061954;28;20371;-40
2022/08/08 01:25:34;;;;;;;1.30;0.70;;;25.00;36.30;;;;;;5022015;28;20124;-44
2022/08/08 01:28:31;;;;;;;2.20;0.77;;;25.00;36.30;;;;;;5057860;28;20102;-40
2022/08/08 01:31:28;;;;;;;1.90;0.90;;;24.90;36.20;;;;;;5045829;28;20032;-40
2022/08/08 01:34:12;;;;;;;1.98;0.63;;;25.00;36.30;;;;;;5063179;28;20043;-40
2022/08/08 01:36:43;;;;;;;0.70;0.60;;;24.90;36.20;;;;;;5063517;28;20025;-40
2022/08/08 01:39:28;;;;;;;;;;;25.00;36.30;;;;;;5065942;28;20025;-40
2022/08/08 01:42:06;;;;;;;2.78;0.90;;;24.90;36.30;;;;;;5064966;28;20021;-40
2022/08/08 01:44:40;;;;;;;1.85;0.80;;;24.90;36.40;;;;;;5065783;28;20046;-40
2022/08/08 01:47:25;;;;;;;0.70;0.60;;;24.90;36.20;;;;;;5057271;28;20043;-40
2022/08/08 01:50:40;;;;;;;3.45;1.00;;;24.90;36.10;;;;;;5065925;28;20029;-39
2022/08/08 01:53:20;;;;;;;1.33;0.57;;;24.80;36.20;;;;;;4974377;28;20046;-40
2022/08/08 01:56:19;;;;;;;2.95;0.88;;;24.90;36.10;;;;;;4974304;28;20042;-40
2022/08/08 01:58:52;;;;;;;1.30;0.80;;;24.90;36.00;;;;;;5045183;28;20032;-39
2022/08/08 02:01:46;;;;;;;1.50;0.88;;;24.80;36.20;;;;;;5062537;28;20048;-41
2022/08/08 02:04:46;;;;;;;2.72;0.80;;;24.80;36.20;;;;;;5055568;28;20025;-40
2022/08/08 02:07:21;;;;;;;1.45;1.02;;;24.80;36.10;;;;;;4967161;28;20087;-40
2022/08/08 02:10:25;;;;;;;1.00;0.68;;;24.80;36.30;;;;;;5034019;28;20044;-39
2022/08/08 02:13:20;;;;;;;2.10;0.88;;;24.80;36.30;;;;;;5063407;28;20041;-39
2022/08/08 02:15:55;;;;;;;2.22;1.00;;;24.80;36.40;;;;;;5055497;28;20118;-40
2022/08/08 02:19:10;;;;;;;2.55;1.00;;;24.70;36.50;;;;;;5065966;28;20024;-44
2022/08/08 02:25:00;;;;;;;1.33;0.82;;;24.70;36.40;;;;;;5050591;28;20075;-40
2022/08/08 02:27:37;;;;;;;0.60;0.55;;;24.70;36.30;;;;;;5055529;28;20058;-43
2022/08/08 02:30:08;;;;;;;3.38;1.33;;;24.70;36.30;;;;;;5057583;28;20068;-40
2022/08/08 02:33:02;;;;;;;1.40;0.90;;;24.70;36.30;;;;;;5051220;28;20063;-39
2022/08/08 02:35:27;;;;;;;1.30;0.80;;;24.70;36.40;;;;;;5065468;28;20074;-40
2022/08/08 02:37:56;;;;;;;1.88;0.80;;;24.60;36.30;;;;;;5059100;28;20025;-39
2022/08/08 02:40:42;;;;;;;0.90;0.60;;;24.60;36.20;;;;;;5055752;28;20021;-45
2022/08/08 02:43:46;;;;;;;1.92;0.65;;;24.60;36.20;;;;;;5036239;28;20515;-41
2022/08/08 02:46:43;;;;;;;0.68;0.60;;;24.60;36.40;;;;;;5050085;28;20076;-39
2022/08/08 02:49:33;;;;;;;0.73;0.60;;;24.60;36.40;;;;;;5058604;28;20028;-40
2022/08/08 02:52:18;;;;;;;1.20;0.70;;;24.60;36.40;;;;;;5052969;28;20027;-40
2022/08/08 02:54:52;;;;;;;0.95;0.60;;;24.60;36.50;;;;;;5049623;28;20052;-39
2022/08/08 02:58:06;;;;;;;1.25;0.63;;;24.60;36.50;;;;;;5058015;28;20485;-43
2022/08/08 03:01:09;;;;;;;2.70;0.80;;;24.60;36.50;;;;;;5052397;28;20025;-40
2022/08/08 03:03:59;;;;;;;1.17;0.68;;;24.60;36.60;;;;;;5057186;28;20035;-40
2022/08/08 03:06:43;;;;;;;1.65;0.82;;;24.60;36.70;;;;;;5051670;28;20025;-46
2022/08/08 03:09:56;;;;;;;1.27;0.88;;;24.50;36.60;;;;;;5050479;28;20051;-40
2022/08/08 03:12:51;;;;;;;2.55;0.70;;;24.50;36.70;;;;;;5050946;28;20049;-45
2022/08/08 03:15:41;;;;;;;1.33;0.82;;;24.50;36.80;;;;;;5051454;28;20040;-40
2022/08/08 03:18:31;;;;;;;0.93;0.90;;;24.50;37.00;;;;;;5047311;28;20032;-40
2022/08/08 03:20:57;;;;;;;1.48;0.70;;;24.50;36.90;;;;;;5013585;28;20033;-40
2022/08/08 03:23:22;;;;;;;1.83;0.85;;;24.50;36.90;;;;;;5043344;28;20367;-47
2022/08/08 03:25:49;;;;;;;1.40;0.77;;;24.50;37.10;;;;;;5050155;28;20116;-41
2022/08/08 03:28:30;;;;;;;1.27;0.70;;;24.50;37.20;;;;;;5063589;28;20027;-40
2022/08/08 03:30:56;;;;;;;1.20;0.70;;;24.50;37.10;;;;;;5048225;28;20086;-40
2022/08/08 03:33:22;;;;;;;1.45;0.75;;;24.40;37.30;;;;;;5051125;28;20267;-45
2022/08/08 03:35:50;;;;;;;1.10;0.70;;;24.40;37.30;;;;;;5051252;28;20104;-40
2022/08/08 03:38:20;;;;;;;2.08;0.80;;;24.40;37.30;;;;;;5051326;28;20033;-41
2022/08/08 03:40:53;;;;;;;2.60;0.90;;;24.40;37.30;;;;;;5050918;28;20116;-38
2022/08/08 03:43:19;;;;;;;1.85;0.77;;;24.40;37.30;;;;;;5051351;28;20029;-40
2022/08/08 03:45:46;;;;;;;1.42;0.90;;;24.40;37.50;;;;;;5057242;28;20028;-40
2022/08/08 03:48:12;;;;;;;1.10;0.68;;;24.40;37.60;;;;;;5064028;28;20020;-40
2022/08/08 03:50:56;;;;;;;1.77;1.13;;;24.30;37.60;;;;;;5055101;28;20390;-42
2022/08/08 03:53:21;;;;;;;2.65;0.68;;;24.30;37.50;;;;;;5055943;28;20424;-46
2022/08/08 03:55:49;;;;;;;0.93;0.60;;;24.30;37.60;;;;;;5047446;28;20025;-40
2022/08/08 03:58:20;;;;;;;1.33;0.90;;;24.30;37.50;;;;;;5032455;28;20061;-40
2022/08/08 04:00:54;;;;;;;1.70;1.00;;;24.30;37.60;;;;;;5030674;28;20565;-40
2022/08/08 04:03:21;;;;;;;1.23;0.80;;;24.30;38.20;;;;;;5045071;28;20398;-40
2022/08/08 04:05:47;;;;;;;3.38;0.93;;;24.30;37.60;;;;;;5050350;28;20105;-40
2022/08/08 04:08:23;;;;;;;1.58;0.70;;;24.30;37.60;;;;;;5050775;28;20025;-40
2022/08/08 04:10:50;;;;;;;0.88;0.80;;;24.20;37.50;;;;;;5045273;28;20037;-40
2022/08/08 04:13:19;;;;;;;1.85;0.80;;;24.30;37.50;;;;;;5051005;28;20029;-38
2022/08/08 04:15:45;;;;;;;1.73;0.88;;;24.20;37.60;;;;;;5050379;28;20029;-38
2022/08/08 04:18:11;;;;;;;1.33;0.90;;;24.20;38.40;;;;;;5051138;28;20103;-43
2022/08/08 04:20:37;;;;;;;0.88;0.60;;;24.20;37.80;;;;;;5048744;28;20080;-38
2022/08/08 04:23:03;;;;;;;1.75;0.90;;;24.20;37.90;;;;;;5051066;28;20025;-38
2022/08/08 04:25:29;;;;;;;2.20;0.70;;;24.20;38.00;;;;;;5049077;28;20114;-38
2022/08/08 04:27:55;;;;;;;0.85;0.70;;;24.30;38.00;;;;;;5050594;28;20061;-38
2022/08/08 04:30:20;;;;;;;1.98;0.73;;;24.20;38.00;;;;;;5050368;28;20041;-38
2022/08/08 04:32:47;;;;;;;1.17;0.88;;;24.30;38.20;;;;;;5048800;28;20032;-38
2022/08/08 04:35:12;;;;;;;1.35;1.02;;;24.30;38.30;;;;;;5050573;28;20115;-38
2022/08/08 04:37:38;;;;;;;1.65;0.60;;;24.20;38.30;;;;;;5049695;28;20047;-38
2022/08/08 04:40:04;;;;;;;1.30;0.90;;;24.20;38.40;;;;;;5052267;28;20033;-38
2022/08/08 04:42:32;;;;;;;1.13;0.80;;;24.20;38.40;;;;;;5054839;28;20025;-38
2022/08/08 04:44:59;;;;;;;1.15;0.88;;;24.20;38.60;;;;;;5065575;28;20029;-40
2022/08/08 04:47:24;;;;;;;1.85;0.95;;;24.20;38.70;;;;;;5061497;28;20632;-46
2022/08/08 04:49:50;;;;;;;3.53;1.30;;;24.20;38.80;;;;;;5058126;28;20055;-41
2022/08/08 04:52:16;;;;;;;1.58;0.90;;;24.20;39.70;;;;;;5053183;28;20442;-39
2022/08/08 04:54:42;;;;;;;1.05;0.68;;;24.20;39.20;;;;;;5055718;28;20092;-38
2022/08/08 04:57:07;;;;;;;1.77;0.90;;;24.20;39.40;;;;;;5059401;28;20046;-38
2022/08/08 04:59:33;;;;;;;2.90;0.80;;;24.20;39.50;;;;;;5060801;28;20064;-38
2022/08/08 05:01:59;;;;;;;1.95;1.10;;;24.20;39.70;;;;;;5063935;28;20381;-38
2022/08/08 05:04:24;;;;;;;1.30;0.70;;;24.20;39.70;;;;;;5057001;28;20431;-46
2022/08/08 05:06:50;;;;;;;1.58;1.00;;;24.20;39.60;;;;;;5055341;28;20029;-40
2022/08/08 05:09:16;;;;;;;1.63;1.10;;;24.20;39.60;;;;;;5053094;28;20017;-38
2022/08/08 05:11:41;;;;;;;3.28;1.10;;;24.20;39.70;;;;;;5043737;28;20128;-38
2022/08/08 05:14:10;;;;;;;1.73;0.82;;;24.10;40.00;;;;;;5041378;28;20032;-40
2022/08/08 05:16:35;;;;;;;2.75;0.75;;;24.20;40.20;;;;;;5034275;28;20490;-40
2022/08/08 05:19:01;;;;;;;1.58;1.25;;;24.20;40.30;;;;;;5041378;28;20021;-43
2022/08/08 05:21:27;;;;;;;1.73;1.15;;;24.20;40.40;;;;;;5042028;28;20033;-38
2022/08/08 05:23:53;;;;;;;1.40;0.95;;;24.20;40.60;;;;;;5043091;28;20029;-38
2022/08/08 05:26:20;;;;;;;3.05;1.27;;;24.20;40.50;;;;;;5041967;28;20102;-39
2022/08/08 05:28:46;;;;;;;1.17;0.80;;;24.20;40.50;;;;;;5041487;28;20106;-38
2022/08/08 05:31:12;;;;;;;1.17;1.05;;;24.20;40.50;;;;;;5041530;28;20026;-40
2022/08/08 05:33:38;;;;;;;2.17;1.17;;;24.20;40.50;;;;;;5041991;28;20041;-40
2022/08/08 05:36:04;;;;;;;3.17;1.00;;;24.20;40.50;;;;;;5043400;28;20393;-40
2022/08/08 05:38:33;;;;;;;1.70;1.10;;;24.20;40.50;;;;;;5038954;28;20365;-40
2022/08/08 05:41:03;;;;;;;3.45;1.25;;;24.20;40.60;;;;;;5044197;28;20036;-40
2022/08/08 05:43:31;;;;;;;2.17;1.02;;;24.20;40.70;;;;;;5046235;28;20029;-40
2022/08/08 05:46:04;;;;;;;17.95;2.08;;;24.20;40.80;;;;;;5046385;28;20057;-40
2022/08/08 05:48:31;;;;;;;2.22;1.27;;;24.10;41.10;;;;;;5038878;28;20035;-47
2022/08/08 05:50:57;;;;;;;1.83;1.40;;;24.10;41.20;;;;;;5037580;28;20029;-40
2022/08/08 05:53:26;;;;;;;3.88;1.30;;;24.10;41.40;;;;;;5045749;28;20040;-47
2022/08/08 05:55:57;;;;;;;3.17;1.10;;;24.10;41.60;;;;;;5045923;28;20029;-40
2022/08/08 05:58:28;;;;;;;2.15;0.95;;;24.20;41.50;;;;;;5038440;28;20068;-49
2022/08/08 06:00:56;;;;;;;2.10;1.13;;;24.30;41.30;;;;;;5041356;28;20037;-40
2022/08/08 06:03:22;;;;;;;1.85;1.20;;;24.30;41.30;;;;;;5035202;28;20021;-44
2022/08/08 06:06:05;;;;;;;2.00;1.40;;;24.30;41.50;;;;;;5034734;28;20036;-40
2022/08/08 06:08:36;;;;;;;2.53;1.40;;;24.30;41.70;;;;;;5034080;28;20033;-40
2022/08/08 06:11:03;;;;;;;2.40;1.20;;;24.30;41.90;;;;;;5045307;28;20466;-40
2022/08/08 06:13:29;;;;;;;1.48;1.27;;;24.40;42.10;;;;;;5067579;28;20025;-40
2022/08/08 06:15:55;;;;;;;2.17;1.02;;;24.50;42.00;;;;;;5053903;28;20465;-40
2022/08/08 06:18:23;;;;;;;2.08;1.20;;;24.60;41.80;;;;;;5067130;28;20074;-46
2022/08/08 06:20:52;;;;;;;1.52;1.23;;;24.70;41.90;;;;;;5054603;28;20056;-41
2022/08/08 06:23:18;;;;;;;2.60;1.20;;;24.70;42.00;;;;;;5060129;28;20083;-38
2022/08/08 06:25:52;;;;;;;2.40;1.38;;;24.80;42.20;;;;;;5053616;28;20623;-38
2022/08/08 06:28:27;;;;;;;4.28;1.60;;;24.70;42.30;;;;;;5054505;28;20078;-38
2022/08/08 06:30:56;;;;;;;2.45;1.27;;;24.80;42.60;;;;;;5054105;28;20028;-38
2022/08/08 06:33:32;;;;;;;1.80;1.30;;;24.80;42.60;;;;;;5064998;28;20052;-45
2022/08/08 06:35:58;;;;;;;2.03;1.10;;;24.80;42.70;;;;;;5056888;28;20037;-38
2022/08/08 06:38:30;;;;;;;4.20;1.42;;;24.80;42.90;;;;;;5047897;28;20098;-48
2022/08/08 06:41:03;;;;;;;2.08;1.08;;;24.80;42.90;;;;;;5065404;28;20085;-38
2022/08/08 06:43:34;;;;;;;3.17;1.38;;;24.80;43.00;;;;;;5064260;28;20031;-41
2022/08/08 06:46:01;;;;;;;3.43;1.17;;;24.80;43.20;;;;;;5055541;28;20025;-38
2022/08/08 06:48:28;;;;;;;1.65;1.10;;;24.90;43.30;;;;;;5064015;28;20269;-39
2022/08/08 06:50:54;;;;;;;2.97;1.60;;;24.90;43.40;;;;;;5056236;28;20021;-39
2022/08/08 06:53:20;;;;;;;6.57;2.20;;;24.90;43.40;;;;;;5054480;28;20033;-39
2022/08/08 06:55:47;;;;;;;2.50;1.70;;;24.60;44.10;;;;;;5053466;28;20083;-41
2022/08/08 06:58:12;;;;;;;3.95;1.80;;;24.50;44.60;;;;;;5064561;28;20394;-39
2022/08/08 07:00:39;;;;;;;3.38;1.92;;;24.30;44.90;;;;;;5058737;28;20035;-39
2022/08/08 07:03:12;;;;;;;3.53;1.45;;;24.30;45.20;;;;;;5052520;28;20363;-39
2022/08/08 07:05:40;;;;;;;4.80;1.60;;;24.30;45.30;;;;;;5058303;28;20077;-40
2022/08/08 07:08:17;;;;;;;5.22;2.05;;;24.30;45.40;;;;;;5055079;28;20242;-39
2022/08/08 07:10:48;;;;;;;3.80;1.73;;;24.20;45.50;;;;;;5067492;28;20027;-39
2022/08/08 07:13:17;;;;;;;4.38;1.90;;;24.20;45.50;;;;;;5058441;28;20365;-39
2022/08/08 07:16:06;;;;;;;4.43;2.00;;;24.20;45.60;;;;;;5056444;28;20525;-42
2022/08/08 07:18:35;;;;;;;10.88;3.05;;;24.20;45.90;;;;;;5067002;28;20025;-41
2022/08/08 07:21:05;;;;;;;6.18;2.22;;;24.20;46.10;;;;;;5062016;28;20103;-39
2022/08/08 07:23:42;;;;;;;3.72;1.60;;;24.30;46.50;;;;;;5059979;28;20038;-38
2022/08/08 07:26:09;;;;;;;3.25;1.50;;;24.30;46.30;;;;;;5059313;28;20032;-39
2022/08/08 07:28:36;;;;;;;5.22;1.90;;;24.30;46.30;;;;;;5057302;28;20028;-39
2022/08/08 07:31:04;;;;;;;4.50;2.15;;;24.20;46.30;;;;;;5047091;28;20021;-39
2022/08/08 07:33:31;;;;;;;6.07;2.22;;;24.30;47.00;;;;;;5053348;28;20045;-39
2022/08/08 07:35:59;;;;;;;5.95;2.30;;;24.30;46.30;;;;;;5057477;28;20431;-39
2022/08/08 07:38:27;;;;;;;6.07;2.33;;;24.30;46.40;;;;;;5053119;28;20094;-46
2022/08/08 07:40:57;;;;;;;2.30;1.80;;;24.30;46.50;;;;;;5060092;28;20373;-39
2022/08/08 07:43:23;;;;;;;5.47;2.00;;;24.30;46.80;;;;;;5060137;28;20029;-45
2022/08/08 07:45:49;;;;;;;3.72;2.00;;;24.30;46.80;;;;;;5063362;28;20024;-39
2022/08/08 07:48:15;;;;;;;4.70;2.15;;;24.30;46.70;;;;;;5061804;28;20052;-39
2022/08/08 07:50:43;;;;;;;4.25;1.92;;;24.40;47.00;;;;;;5057413;28;20060;-39
2022/08/08 07:53:31;;;;;;;4.22;2.00;;;24.40;47.30;;;;;;5057822;28;20020;-39
2022/08/08 07:56:00;;;;;;;3.72;1.70;;;24.40;47.20;;;;;;5058213;28;20427;-38
2022/08/08 07:58:31;;;;;;;6.03;2.10;;;24.40;47.20;;;;;;5054266;28;20025;-39
2022/08/08 08:01:06;;;;;;;3.95;1.60;;;24.40;47.70;;;;;;5053798;28;20037;-44
2022/08/08 08:03:34;;;;;;;3.42;1.85;;;24.50;47.70;;;;;;5056103;28;20036;-39
2022/08/08 08:06:04;;;;;;;6.78;2.08;;;24.50;47.70;;;;;;5062477;28;20024;-38
2022/08/08 08:08:41;;;;;;;4.95;2.00;;;24.50;48.40;;;;;;5060372;28;20116;-39
2022/08/08 08:11:14;;;;;;;3.55;1.55;;;24.50;47.80;;;;;;5061354;28;20049;-39
2022/08/08 08:13:52;;;;;;;3.83;1.73;;;24.60;47.90;;;;;;5053059;28;20521;-38
2022/08/08 08:16:22;;;;;;;2.33;1.40;;;24.60;47.90;;;;;;5054970;28;20040;-39
2022/08/08 08:18:56;;;;;;;2.72;1.60;;;24.60;47.70;;;;;;5065013;28;20107;-39
2022/08/08 08:21:24;;;;;;;6.05;2.70;;;24.60;47.60;;;;;;5055411;28;20031;-46
2022/08/08 08:23:49;;;;;;;2.50;1.50;;;24.70;47.70;;;;;;5057256;28;20021;-42
2022/08/08 08:26:17;;;;;;;3.47;1.52;;;24.60;47.40;;;;;;5061014;28;20029;-38
2022/08/08 08:28:43;;;;;;;5.28;1.65;;;24.70;47.40;;;;;;5059742;28;20013;-39
2022/08/08 08:31:09;;;;;;;2.67;1.42;;;24.80;47.30;;;;;;5061546;28;20032;-39
2022/08/08 08:33:34;;;;;;;3.95;2.00;;;24.80;47.30;;;;;;5062021;28;20438;-38
2022/08/08 08:36:01;;;;;;;3.00;1.70;;;24.80;47.40;;;;;;5056585;28;20436;-39
2022/08/08 08:38:27;;;;;;;3.83;1.40;;;24.80;47.20;;;;;;5059660;28;20505;-39
2022/08/08 08:40:53;;;;;;;4.00;1.73;;;24.80;47.10;;;;;;5052528;28;20457;-38
2022/08/08 08:43:20;;;;;;;2.33;1.55;;;24.80;47.00;;;;;;5057130;28;20108;-39
2022/08/08 08:45:47;;;;;;;2.13;1.42;;;24.90;47.10;;;;;;5060909;28;20044;-39
2022/08/08 08:48:16;;;;;;;3.90;1.30;;;24.90;47.00;;;;;;5057322;28;20029;-39
2022/08/08 08:50:44;;;;;;;2.70;1.73;;;24.90;47.30;;;;;;5061428;28;20199;-40
2022/08/08 08:53:12;;;;;;;5.10;2.20;;;24.90;47.10;;;;;;5065547;28;20217;-39
2022/08/08 08:55:38;;;;;;;2.00;1.50;;;24.90;47.00;;;;;;5064476;28;20032;-39
2022/08/08 08:58:08;;;;;;;4.07;1.10;;;24.90;46.60;;;;;;5063658;28;20370;-39
2022/08/08 09:00:36;;;;;;;4.63;1.80;;;25.00;46.50;;;;;;5058462;28;20390;-41
2022/08/08 09:03:07;;;;;;;1.95;1.30;;;25.00;46.20;;;;;;5060080;28;20013;-39
2022/08/08 09:05:37;;;;;;;1.85;1.50;;;25.10;46.00;;;;;;5057427;28;20128;-39
2022/08/08 09:08:06;;;;;;;3.20;1.63;;;25.20;46.00;;;;;;5051226;28;20032;-39
2022/08/08 09:10:36;;;;;;;3.72;1.48;;;25.20;45.80;;;;;;5066110;28;20025;-39
2022/08/08 09:13:03;;;;;;;1.85;1.50;;;25.20;45.60;;;;;;5062959;28;20021;-42
2022/08/08 09:15:30;;;;;;;2.53;1.65;;;25.30;45.60;;;;;;5060812;28;20588;-39
2022/08/08 09:17:57;;;;;;;2.40;1.38;;;25.30;45.50;;;;;;5070399;28;20024;-39
2022/08/08 09:20:25;;;;;;;1.88;1.60;;;25.30;45.40;;;;;;5063323;28;20017;-45
2022/08/08 09:22:52;;;;;;;1.92;1.73;;;25.30;45.30;;;;;;5059655;28;20033;-39
2022/08/08 09:25:19;;;;;;;2.45;1.40;;;25.30;45.20;;;;;;5063101;28;20493;-40
2022/08/08 09:27:45;;;;;;;2.42;1.20;;;25.40;45.20;;;;;;5057546;28;20027;-39
2022/08/08 09:30:13;;;;;;;2.17;1.40;;;25.40;45.20;;;;;;5066742;28;20032;-39
2022/08/08 09:32:50;;;;;;;2.35;1.33;;;25.40;45.10;;;;;;5055462;28;20478;-39
2022/08/08 09:35:27;;;;;;;1.67;1.23;;;25.40;45.00;;;;;;5062209;28;20033;-39
2022/08/08 09:37:56;;;;;;;3.67;1.20;;;25.50;45.10;;;;;;5062928;28;20021;-39
2022/08/08 09:40:26;;;;;;;3.03;1.10;;;25.40;45.00;;;;;;5054704;28;20021;-46
2022/08/08 09:43:15;;;;;;;1.75;1.15;;;25.50;45.00;;;;;;5058674;28;20424;-39
2022/08/08 09:46:00;;;;;;;4.90;1.90;;;25.50;45.00;;;;;;5060410;28;20040;-39
2022/08/08 09:48:30;;;;;;;1.40;1.25;;;25.50;44.90;;;;;;5056370;28;20090;-47
2022/08/08 09:50:57;;;;;;;2.33;1.38;;;25.60;45.00;;;;;;5057756;28;20112;-39
2022/08/08 09:53:46;;;;;;;2.42;1.25;;;25.60;44.90;;;;;;5060929;28;20032;-43
2022/08/08 09:56:14;;;;;;;1.27;1.10;;;25.60;44.90;;;;;;5062471;28;20481;-39
2022/08/08 09:58:59;;;;;;;1.38;1.02;;;25.50;44.80;;;;;;5059742;28;20023;-42
2022/08/08 10:01:26;;;;;;;1.95;1.25;;;25.60;44.80;;;;;;5066185;28;20037;-45
2022/08/08 10:03:56;;;;;;;2.08;1.35;;;25.60;44.80;;;;;;5053227;28;20045;-39
2022/08/08 10:06:21;;;;;;;1.85;1.25;;;25.60;44.80;;;;;;5054707;28;20033;-45
2022/08/08 10:08:49;;;;;;;1.10;0.98;;;25.60;44.70;;;;;;5058395;28;20047;-39
2022/08/08 10:11:19;;;;;;;1.05;0.82;;;25.60;44.60;;;;;;5060759;28;20060;-43
2022/08/08 10:13:56;;;;;;;1.85;1.23;;;25.60;44.70;;;;;;5043825;28;20645;-39
2022/08/08 10:16:22;;;;;;;1.20;1.00;;;25.60;44.80;;;;;;5037519;28;20482;-46
2022/08/08 10:18:48;;;;;;;2.38;1.15;;;25.60;45.00;;;;;;5046383;28;20017;-40
2022/08/08 10:21:18;;;;;;;2.25;1.90;;;25.70;45.00;;;;;;5040100;28;20456;-39
2022/08/08 10:23:48;;;;;;;3.05;1.25;;;25.70;44.90;;;;;;5032801;28;20022;-40
2022/08/08 10:26:34;;;;;;;3.10;1.40;;;25.70;45.70;;;;;;5035126;28;20099;-40
2022/08/08 10:29:06;;;;;;;2.63;1.23;;;25.70;45.30;;;;;;5042334;28;20025;-39
2022/08/08 10:34:22;;;;;;;1.65;1.25;;;25.70;44.60;;;;;;5043896;28;20032;-43
2022/08/08 10:36:49;;;;;;;1.17;1.00;;;25.80;44.60;;;;;;5043740;28;20033;-39
2022/08/08 10:39:26;;;;;;;2.17;1.35;;;25.70;44.70;;;;;;5040145;28;20029;-39
2022/08/08 10:42:00;;;;;;;1.65;1.02;;;25.70;45.70;;;;;;5028880;28;20552;-39
2022/08/08 10:44:39;;;;;;;2.42;1.25;;;25.70;46.00;;;;;;5019212;28;20038;-44
2022/08/08 10:47:31;;;;;;;2.50;1.48;;;25.70;45.70;;;;;;5048611;28;20037;-40
2022/08/08 10:50:00;;;;;;;1.95;1.10;;;25.70;45.70;;;;;;5031418;28;20401;-39
2022/08/08 10:52:28;;;;;;;2.72;1.42;;;25.70;45.60;;;;;;5034978;28;20109;-45
2022/08/08 10:55:06;;;;;;;2.15;1.60;;;25.80;45.70;;;;;;5040560;28;20091;-39
2022/08/08 10:57:41;;;;;;;5.32;1.70;;;25.80;46.30;;;;;;5038859;28;20033;-40
2022/08/08 11:00:09;;;;;;;4.78;1.55;;;25.90;45.40;;;;;;5039067;28;20430;-42
2022/08/08 11:02:35;;;;;;;6.10;2.20;;;25.90;45.30;;;;;;5037189;28;20033;-40
2022/08/08 11:05:04;;;;;;;5.88;1.35;;;25.80;45.10;;;;;;5037959;28;20411;-42
2022/08/08 11:08:01;;;;;;;3.25;1.27;;;25.80;44.90;;;;;;5037703;28;20111;-44
2022/08/08 11:10:26;;;;;;;2.40;1.58;;;25.90;45.60;;;;;;5028618;28;20041;-40
2022/08/08 11:12:55;;;;;;;4.70;1.27;;;25.80;45.10;;;;;;5034925;28;20054;-39
2022/08/08 11:15:27;;;;;;;5.95;1.60;;;25.80;45.10;;;;;;5029880;28;20077;-44
2022/08/08 11:17:55;;;;;;;4.50;2.10;;;25.80;44.80;;;;;;5031186;28;20033;-40
2022/08/08 11:20:23;;;;;;;2.30;1.17;;;25.80;44.80;;;;;;5030914;28;20036;-40
2022/08/08 11:22:51;;;;;;;4.68;1.92;;;25.80;44.90;;;;;;5030866;28;20032;-39
2022/08/08 11:25:22;;;;;;;4.25;1.20;;;25.80;44.50;;;;;;5029869;28;20061;-39
2022/08/08 11:27:52;;;;;;;3.95;1.38;;;25.90;44.60;;;;;;5030162;28;20025;-39
2022/08/08 11:30:18;;;;;;;3.10;1.52;;;25.90;44.70;;;;;;5027902;28;20036;-40
2022/08/08 11:32:44;;;;;;;4.63;1.52;;;25.90;44.80;;;;;;5029958;28;20618;-39
2022/08/08 11:35:12;;;;;;;2.70;1.50;;;25.90;44.50;;;;;;5029795;28;20104;-39
2022/08/08 11:37:39;;;;;;;1.85;1.25;;;25.90;44.60;;;;;;5029417;28;20438;-39
2022/08/08 11:40:08;;;;;;;2.55;1.65;;;25.90;44.60;;;;;;5030193;28;20031;-40
2022/08/08 11:42:34;;;;;;;2.22;1.23;;;25.90;44.50;;;;;;5029821;28;20025;-40
2022/08/08 11:45:00;;;;;;;3.38;1.25;;;25.90;44.60;;;;;;5030539;28;20013;-40
2022/08/08 11:47:26;;;;;;;2.33;1.35;;;25.90;44.40;;;;;;5029497;28;20024;-40
2022/08/08 11:49:55;;;;;;;4.70;1.10;;;25.90;44.60;;;;;;5029868;28;20386;-39
2022/08/08 11:52:22;;;;;;;4.85;0.95;;;25.90;44.40;;;;;;5030300;28;20033;-47
2022/08/08 11:54:48;;;;;;;2.05;1.17;;;25.90;44.50;;;;;;5029387;28;20026;-39
2022/08/08 11:57:17;;;;;;;2.55;1.15;;;25.90;44.10;;;;;;5030179;28;20116;-39
2022/08/08 12:00:05;;;;;;;3.03;1.38;;;25.90;44.10;;;;;;5028779;28;20017;-39
2022/08/08 12:02:43;;;;;;;1.35;0.80;;;25.90;44.00;;;;;;5028144;28;20029;-39
2022/08/08 12:05:10;;;;;;;2.75;1.08;;;25.90;44.10;;;;;;5029935;28;20367;-40
2022/08/08 12:07:54;;;;;;;2.38;1.13;;;25.90;43.90;;;;;;5029213;28;20030;-39
2022/08/08 12:10:26;;;;;;;5.32;1.20;;;25.90;44.10;;;;;;5029843;28;20104;-39
2022/08/08 12:13:09;;;;;;;1.40;0.90;;;25.90;44.70;;;;;;5045405;28;20044;-39
2022/08/08 12:15:37;;;;;;;1.40;1.10;;;25.90;44.00;;;;;;5048827;28;20033;-40
2022/08/08 12:18:20;;;;;;;1.48;1.02;;;25.90;43.80;;;;;;5050521;28;20024;-40
2022/08/08 12:20:46;;;;;;;2.05;0.90;;;25.90;44.40;;;;;;5049567;28;20033;-39
2022/08/08 12:23:12;;;;;;;1.58;0.98;;;25.90;44.50;;;;;;5052212;28;20481;-39
2022/08/08 12:25:38;;;;;;;2.40;1.02;;;25.90;44.30;;;;;;5047856;28;20029;-41
2022/08/08 12:28:13;;;;;;;1.48;0.90;;;25.90;44.10;;;;;;5054332;28;20025;-40
2022/08/08 12:30:40;;;;;;;1.63;1.17;;;26.00;44.60;;;;;;5053266;28;20021;-39
2022/08/08 12:33:16;;;;;;;1.73;1.40;;;26.00;45.10;;;;;;5054157;28;20044;-39
2022/08/08 12:35:42;;;;;;;1.90;1.02;;;26.00;45.30;;;;;;5051054;28;20649;-39
2022/08/08 12:38:10;;;;;;;1.67;1.20;;;26.00;45.10;;;;;;5053727;28;20110;-39
2022/08/08 12:40:42;;;;;;;3.20;1.60;;;26.00;45.20;;;;;;5051798;28;20037;-39
2022/08/08 12:43:08;;;;;;;1.25;0.90;;;26.00;45.70;;;;;;5052613;28;20159;-40
2022/08/08 12:45:44;;;;;;;2.08;1.30;;;26.00;45.40;;;;;;5051641;28;20032;-39
2022/08/08 12:48:21;;;;;;;2.15;1.00;;;26.00;45.60;;;;;;5049487;28;20033;-39
2022/08/08 12:50:48;;;;;;;1.38;1.13;;;26.00;45.60;;;;;;5050775;28;20039;-39
2022/08/08 12:53:31;;;;;;;1.27;0.90;;;26.00;45.60;;;;;;5053202;28;20163;-39
2022/08/08 12:56:03;;;;;;;1.77;1.13;;;26.00;45.50;;;;;;5055419;28;20028;-39
2022/08/08 12:58:43;;;;;;;2.22;1.00;;;26.00;45.60;;;;;;5053370;28;20033;-40
2022/08/08 13:01:10;;;;;;;2.10;1.10;;;26.00;45.70;;;;;;5051392;28;20025;-39
2022/08/08 13:03:42;;;;;;;1.67;1.20;;;26.00;45.80;;;;;;5052678;28;20036;-39
2022/08/08 13:06:12;;;;;;;1.90;1.15;;;26.00;45.80;;;;;;5051802;28;20029;-39
2022/08/08 13:08:51;;;;;;;4.15;1.35;;;26.00;45.90;;;;;;5051587;28;20474;-40
2022/08/08 13:11:31;;;;;;;1.95;1.10;;;26.00;46.10;;;;;;5052628;28;20056;-39
2022/08/08 13:14:03;;;;;;;2.35;1.65;;;26.00;46.10;;;;;;5051875;28;20025;-39
2022/08/08 13:16:32;;;;;;;1.73;0.80;;;26.00;46.00;;;;;;5055583;28;20032;-44
2022/08/08 13:19:00;;;;;;;2.05;1.00;;;26.00;46.10;;;;;;5064898;28;20489;-39
2022/08/08 13:21:27;;;;;;;3.17;1.15;;;26.10;46.20;;;;;;5064196;28;20016;-40
2022/08/08 13:23:52;;;;;;;2.15;0.98;;;26.10;46.30;;;;;;5066359;28;20028;-40
2022/08/08 13:26:18;;;;;;;0.80;0.80;;;26.10;46.30;;;;;;5065059;28;20466;-39
2022/08/08 13:28:44;;;;;;;1.55;1.10;;;26.00;46.20;;;;;;5058697;28;20025;-40